Airport View

Enter AWOS ICAO identifier for current METAR.

ex. KFNL

KCFE 261117Z 10SM CLR 14/12 A2997 RMK AO2 T01400117

26 Jun 2019 11:48

Frequency: 120.45

Phone: 763-684-0762

Other Area AWOS: KMGG - KMIC - KSTC - KFCM

TAF KSTC 260520Z 2606/2706 25003KT P6SM SKC FM261500 23007KT P6SM FEW050 SCT120 FM262000 20007KT P6SM FEW050 BKN120